Strongs, Michigan
Current Conditions -  °F | °C
As of 8:13 PM on Sunday 23 Nov 2014 (Local Time) from KERY Reporting Station
Haze Haze  
Wind Chill:   Ceiling: 200
Heat Index:   Visibility: 2mi
Dew Point:   Wind: 9mph
Humidity: 100%   Direction: 160°SSE
Pressure: 29.45"   Gusts: NA
Location:  46.36°N, 84.97°W
Report Text: KERY 240113Z AUTO 16008KT 2SM BR OVC002 06/06 A2945 RMK AO2 VIS 1 1/2V3 T00560056
Loading
Personal Weather Stations






























Interactive Weather Map New forecast layout! Learn more

10-Day Weather Forecast

Advertisements
Track Severe Weather on mobile